sensor_id;sensor_type;location;lat;lon;timestamp;P1;durP1;ratioP1;P2;durP2;ratioP2
34471;SDS011;20710;49.976;19.836;2022-08-19T00:05:00;16.70;;;13.18;;
34471;SDS011;20710;49.976;19.836;2022-08-19T00:11:03;18.25;;;14.55;;
34471;SDS011;20710;49.976;19.836;2022-08-19T00:17:06;16.30;;;14.63;;
34471;SDS011;20710;49.976;19.836;2022-08-19T00:23:09;16.75;;;14.65;;
34471;SDS011;20710;49.976;19.836;2022-08-19T00:29:12;19.17;;;14.83;;
34471;SDS011;20710;49.976;19.836;2022-08-19T00:35:18;18.23;;;15.30;;
34471;SDS011;20710;49.976;19.836;2022-08-19T00:41:19;16.00;;;11.73;;
34471;SDS011;20710;49.976;19.836;2022-08-19T00:47:23;19.55;;;14.50;;
34471;SDS011;20710;49.976;19.836;2022-08-19T00:53:26;19.40;;;14.98;;
34471;SDS011;20710;49.976;19.836;2022-08-19T00:59:31;15.83;;;13.30;;
34471;SDS011;20710;49.976;19.836;2022-08-19T01:05:34;19.32;;;17.25;;
34471;SDS011;20710;49.976;19.836;2022-08-19T01:11:38;18.70;;;15.60;;
34471;SDS011;20710;49.976;19.836;2022-08-19T01:17:43;17.67;;;15.85;;
34471;SDS011;20710;49.976;19.836;2022-08-19T01:23:46;18.15;;;16.25;;
34471;SDS011;20710;49.976;19.836;2022-08-19T01:29:48;20.23;;;16.95;;
34471;SDS011;20710;49.976;19.836;2022-08-19T01:35:49;22.37;;;17.57;;
34471;SDS011;20710;49.976;19.836;2022-08-19T01:41:52;21.73;;;17.48;;
34471;SDS011;20710;49.976;19.836;2022-08-19T01:47:55;19.17;;;17.15;;
34471;SDS011;20710;49.976;19.836;2022-08-19T01:53:57;22.40;;;17.17;;
34471;SDS011;20710;49.976;19.836;2022-08-19T01:59:59;22.75;;;17.75;;
34471;SDS011;20710;49.976;19.836;2022-08-19T02:06:05;21.57;;;18.73;;
34471;SDS011;20710;49.976;19.836;2022-08-19T02:12:07;24.50;;;17.90;;
34471;SDS011;20710;49.976;19.836;2022-08-19T02:18:09;20.17;;;17.02;;
34471;SDS011;20710;49.976;19.836;2022-08-19T02:24:12;21.68;;;19.32;;
34471;SDS011;20710;49.976;19.836;2022-08-19T02:30:14;18.48;;;15.85;;
34471;SDS011;20710;49.976;19.836;2022-08-19T02:36:18;18.87;;;16.10;;
34471;SDS011;20710;49.976;19.836;2022-08-19T02:42:20;22.15;;;17.70;;
34471;SDS011;20710;49.976;19.836;2022-08-19T02:48:23;22.27;;;18.60;;
34471;SDS011;20710;49.976;19.836;2022-08-19T02:54:26;22.20;;;18.80;;
34471;SDS011;20710;49.976;19.836;2022-08-19T03:00:28;24.23;;;19.00;;
34471;SDS011;20710;49.976;19.836;2022-08-19T03:06:30;20.30;;;15.60;;
34471;SDS011;20710;49.976;19.836;2022-08-19T03:12:35;24.37;;;17.42;;
34471;SDS011;20710;49.976;19.836;2022-08-19T03:18:38;20.17;;;17.42;;
34471;SDS011;20710;49.976;19.836;2022-08-19T03:24:39;18.40;;;14.90;;
34471;SDS011;20710;49.976;19.836;2022-08-19T03:30:41;22.62;;;17.57;;
34471;SDS011;20710;49.976;19.836;2022-08-19T03:36:46;23.47;;;18.23;;
34471;SDS011;20710;49.976;19.836;2022-08-19T03:42:51;22.22;;;19.02;;
34471;SDS011;20710;49.976;19.836;2022-08-19T03:48:53;21.27;;;16.55;;
34471;SDS011;20710;49.976;19.836;2022-08-19T03:54:56;19.70;;;16.80;;
34471;SDS011;20710;49.976;19.836;2022-08-19T04:00:58;22.82;;;18.75;;
34471;SDS011;20710;49.976;19.836;2022-08-19T04:06:59;26.93;;;17.67;;
34471;SDS011;20710;49.976;19.836;2022-08-19T04:13:02;22.15;;;17.50;;
34471;SDS011;20710;49.976;19.836;2022-08-19T04:25:09;19.10;;;15.45;;
34471;SDS011;20710;49.976;19.836;2022-08-19T04:31:15;21.27;;;16.07;;
34471;SDS011;20710;49.976;19.836;2022-08-19T04:37:21;17.98;;;15.43;;
34471;SDS011;20710;49.976;19.836;2022-08-19T04:43:23;17.98;;;14.65;;
34471;SDS011;20710;49.976;19.836;2022-08-19T04:50:13;20.07;;;17.27;;
34471;SDS011;20710;49.976;19.836;2022-08-19T04:56:18;18.52;;;16.55;;
34471;SDS011;20710;49.976;19.836;2022-08-19T05:02:23;19.45;;;17.20;;
34471;SDS011;20710;49.976;19.836;2022-08-19T05:08:25;24.82;;;20.43;;
34471;SDS011;20710;49.976;19.836;2022-08-19T05:14:27;23.38;;;20.92;;
34471;SDS011;20710;49.976;19.836;2022-08-19T05:20:30;21.33;;;18.90;;
34471;SDS011;20710;49.976;19.836;2022-08-19T05:26:55;23.40;;;20.60;;
34471;SDS011;20710;49.976;19.836;2022-08-19T05:32:57;25.48;;;19.82;;
34471;SDS011;20710;49.976;19.836;2022-08-19T05:38:59;23.32;;;20.60;;
34471;SDS011;20710;49.976;19.836;2022-08-19T05:45:01;23.83;;;19.50;;
34471;SDS011;20710;49.976;19.836;2022-08-19T05:51:07;22.27;;;18.57;;
34471;SDS011;20710;49.976;19.836;2022-08-19T05:57:07;24.40;;;17.27;;
34471;SDS011;20710;49.976;19.836;2022-08-19T06:03:10;20.00;;;17.50;;
34471;SDS011;20710;49.976;19.836;2022-08-19T06:09:12;21.35;;;17.92;;
34471;SDS011;20710;49.976;19.836;2022-08-19T06:15:13;18.23;;;16.32;;
34471;SDS011;20710;49.976;19.836;2022-08-19T06:21:16;21.37;;;14.95;;
34471;SDS011;20710;49.976;19.836;2022-08-19T06:27:18;18.67;;;15.43;;
34471;SDS011;20710;49.976;19.836;2022-08-19T06:33:23;17.25;;;14.43;;
34471;SDS011;20710;49.976;19.836;2022-08-19T06:39:25;17.57;;;14.55;;
34471;SDS011;20710;49.976;19.836;2022-08-19T06:45:31;15.75;;;13.15;;
34471;SDS011;20710;49.976;19.836;2022-08-19T06:51:32;15.50;;;13.32;;
34471;SDS011;20710;49.976;19.836;2022-08-19T06:57:34;14.95;;;12.58;;
34471;SDS011;20710;49.976;19.836;2022-08-19T07:03:37;15.03;;;13.05;;
34471;SDS011;20710;49.976;19.836;2022-08-19T07:09:41;17.67;;;13.28;;
34471;SDS011;20710;49.976;19.836;2022-08-19T07:15:45;16.37;;;12.18;;
34471;SDS011;20710;49.976;19.836;2022-08-19T07:21:48;13.00;;;11.60;;
34471;SDS011;20710;49.976;19.836;2022-08-19T07:27:53;13.43;;;12.07;;
34471;SDS011;20710;49.976;19.836;2022-08-19T07:33:54;13.83;;;11.97;;
34471;SDS011;20710;49.976;19.836;2022-08-19T07:39:57;13.98;;;10.78;;
34471;SDS011;20710;49.976;19.836;2022-08-19T07:45:58;17.07;;;11.93;;
34471;SDS011;20710;49.976;19.836;2022-08-19T07:52:04;13.98;;;11.35;;
34471;SDS011;20710;49.976;19.836;2022-08-19T07:58:07;15.85;;;11.53;;
34471;SDS011;20710;49.976;19.836;2022-08-19T08:04:09;13.45;;;9.93;;
34471;SDS011;20710;49.976;19.836;2022-08-19T08:10:29;14.78;;;10.40;;
34471;SDS011;20710;49.976;19.836;2022-08-19T08:16:36;14.28;;;10.45;;
34471;SDS011;20710;49.976;19.836;2022-08-19T08:22:47;14.00;;;10.28;;
34471;SDS011;20710;49.976;19.836;2022-08-19T08:29:06;13.35;;;9.98;;
34471;SDS011;20710;49.976;19.836;2022-08-19T08:35:11;13.10;;;9.85;;
34471;SDS011;20710;49.976;19.836;2022-08-19T08:41:35;14.37;;;9.50;;
34471;SDS011;20710;49.976;19.836;2022-08-19T08:47:57;13.62;;;9.20;;
34471;SDS011;20710;49.976;19.836;2022-08-19T08:54:04;13.10;;;9.30;;
34471;SDS011;20710;49.976;19.836;2022-08-19T09:00:14;9.83;;;8.83;;
34471;SDS011;20710;49.976;19.836;2022-08-19T09:06:27;9.48;;;8.18;;
34471;SDS011;20710;49.976;19.836;2022-08-19T09:18:52;10.53;;;8.43;;
34471;SDS011;20710;49.976;19.836;2022-08-19T09:24:59;11.75;;;8.08;;
34471;SDS011;20710;49.976;19.836;2022-08-19T09:31:01;12.55;;;8.58;;
34471;SDS011;20710;49.976;19.836;2022-08-19T09:37:02;11.48;;;8.08;;
34471;SDS011;20710;49.976;19.836;2022-08-19T09:43:12;10.58;;;7.65;;
34471;SDS011;20710;49.976;19.836;2022-08-19T09:49:15;12.23;;;7.60;;
34471;SDS011;20710;49.976;19.836;2022-08-19T09:55:18;10.20;;;7.53;;
34471;SDS011;20710;49.976;19.836;2022-08-19T10:01:22;10.85;;;7.70;;
34471;SDS011;20710;49.976;19.836;2022-08-19T10:07:28;10.88;;;7.78;;
34471;SDS011;20710;49.976;19.836;2022-08-19T10:13:31;9.78;;;6.50;;
34471;SDS011;20710;49.976;19.836;2022-08-19T10:19:35;11.00;;;7.25;;
34471;SDS011;20710;49.976;19.836;2022-08-19T10:25:37;10.50;;;7.37;;
34471;SDS011;20710;49.976;19.836;2022-08-19T10:31:39;10.10;;;7.30;;
34471;SDS011;20710;49.976;19.836;2022-08-19T10:37:41;10.00;;;7.72;;
34471;SDS011;20710;49.976;19.836;2022-08-19T10:43:43;8.90;;;7.30;;
34471;SDS011;20710;49.976;19.836;2022-08-19T10:49:48;8.53;;;6.67;;
34471;SDS011;20710;49.976;19.836;2022-08-19T10:56:11;10.08;;;8.10;;
34471;SDS011;20710;49.976;19.836;2022-08-19T11:02:33;10.38;;;7.08;;
34471;SDS011;20710;49.976;19.836;2022-08-19T11:08:35;10.88;;;7.75;;
34471;SDS011;20710;49.976;19.836;2022-08-19T11:14:38;8.40;;;7.50;;
34471;SDS011;20710;49.976;19.836;2022-08-19T11:20:39;8.53;;;7.08;;
34471;SDS011;20710;49.976;19.836;2022-08-19T11:26:46;9.53;;;7.53;;
34471;SDS011;20710;49.976;19.836;2022-08-19T11:32:50;10.38;;;7.03;;
34471;SDS011;20710;49.976;19.836;2022-08-19T11:38:52;11.57;;;8.08;;
34471;SDS011;20710;49.976;19.836;2022-08-19T11:44:54;9.85;;;7.92;;
34471;SDS011;20710;49.976;19.836;2022-08-19T11:50:56;9.50;;;8.18;;
34471;SDS011;20710;49.976;19.836;2022-08-19T11:56:57;11.78;;;6.90;;
34471;SDS011;20710;49.976;19.836;2022-08-19T12:02:59;9.15;;;6.72;;
34471;SDS011;20710;49.976;19.836;2022-08-19T12:09:02;7.28;;;6.58;;
34471;SDS011;20710;49.976;19.836;2022-08-19T12:15:09;8.70;;;7.80;;
34471;SDS011;20710;49.976;19.836;2022-08-19T12:21:13;10.93;;;6.92;;
34471;SDS011;20710;49.976;19.836;2022-08-19T12:27:17;10.60;;;7.95;;
34471;SDS011;20710;49.976;19.836;2022-08-19T12:33:19;7.70;;;6.95;;
34471;SDS011;20710;49.976;19.836;2022-08-19T12:39:23;7.40;;;6.33;;
34471;SDS011;20710;49.976;19.836;2022-08-19T12:45:25;7.12;;;6.42;;
34471;SDS011;20710;49.976;19.836;2022-08-19T12:51:26;8.48;;;6.80;;
34471;SDS011;20710;49.976;19.836;2022-08-19T12:57:28;7.97;;;6.55;;
34471;SDS011;20710;49.976;19.836;2022-08-19T13:03:30;8.93;;;6.53;;
34471;SDS011;20710;49.976;19.836;2022-08-19T13:09:34;7.20;;;5.40;;
34471;SDS011;20710;49.976;19.836;2022-08-19T13:15:36;9.28;;;5.87;;
34471;SDS011;20710;49.976;19.836;2022-08-19T13:21:40;11.45;;;6.78;;
34471;SDS011;20710;49.976;19.836;2022-08-19T13:27:42;8.30;;;6.10;;
34471;SDS011;20710;49.976;19.836;2022-08-19T13:33:44;8.45;;;5.35;;
34471;SDS011;20710;49.976;19.836;2022-08-19T13:39:46;7.90;;;5.10;;
34471;SDS011;20710;49.976;19.836;2022-08-19T13:45:48;9.73;;;4.90;;
34471;SDS011;20710;49.976;19.836;2022-08-19T13:51:57;5.58;;;4.53;;
34471;SDS011;20710;49.976;19.836;2022-08-19T13:57:59;7.65;;;5.03;;
34471;SDS011;20710;49.976;19.836;2022-08-19T14:04:03;7.83;;;5.60;;
34471;SDS011;20710;49.976;19.836;2022-08-19T14:10:08;9.80;;;5.67;;
34471;SDS011;20710;49.976;19.836;2022-08-19T14:16:13;8.90;;;5.90;;
34471;SDS011;20710;49.976;19.836;2022-08-19T14:22:14;6.60;;;5.60;;
34471;SDS011;20710;49.976;19.836;2022-08-19T14:28:16;7.15;;;5.40;;
34471;SDS011;20710;49.976;19.836;2022-08-19T14:34:17;8.15;;;5.40;;
34471;SDS011;20710;49.976;19.836;2022-08-19T14:40:19;9.08;;;6.40;;
34471;SDS011;20710;49.976;19.836;2022-08-19T14:46:24;8.80;;;6.80;;
34471;SDS011;20710;49.976;19.836;2022-08-19T14:52:28;9.03;;;6.28;;
34471;SDS011;20710;49.976;19.836;2022-08-19T14:58:30;9.23;;;6.35;;
34471;SDS011;20710;49.976;19.836;2022-08-19T15:04:34;8.23;;;5.85;;
34471;SDS011;20710;49.976;19.836;2022-08-19T15:10:37;8.10;;;6.00;;
34471;SDS011;20710;49.976;19.836;2022-08-19T15:16:40;7.83;;;6.87;;
34471;SDS011;20710;49.976;19.836;2022-08-19T15:22:42;7.30;;;6.60;;
34471;SDS011;20710;49.976;19.836;2022-08-19T15:28:44;7.70;;;6.00;;
34471;SDS011;20710;49.976;19.836;2022-08-19T15:34:46;14.60;;;10.20;;
34471;SDS011;20710;49.976;19.836;2022-08-19T15:40:49;13.65;;;9.80;;
34471;SDS011;20710;49.976;19.836;2022-08-19T15:46:51;12.58;;;7.78;;
34471;SDS011;20710;49.976;19.836;2022-08-19T15:52:53;7.80;;;6.47;;
34471;SDS011;20710;49.976;19.836;2022-08-19T15:58:59;9.18;;;6.30;;
34471;SDS011;20710;49.976;19.836;2022-08-19T16:05:24;11.30;;;6.67;;
34471;SDS011;20710;49.976;19.836;2022-08-19T16:11:44;8.53;;;6.10;;
34471;SDS011;20710;49.976;19.836;2022-08-19T16:17:47;10.90;;;6.92;;
34471;SDS011;20710;49.976;19.836;2022-08-19T16:23:49;8.00;;;6.85;;
34471;SDS011;20710;49.976;19.836;2022-08-19T16:29:51;8.93;;;7.20;;
34471;SDS011;20710;49.976;19.836;2022-08-19T16:35:52;8.05;;;7.25;;
34471;SDS011;20710;49.976;19.836;2022-08-19T16:41:54;8.58;;;7.60;;
34471;SDS011;20710;49.976;19.836;2022-08-19T16:47:56;11.25;;;6.95;;
34471;SDS011;20710;49.976;19.836;2022-08-19T16:53:57;11.33;;;7.80;;
34471;SDS011;20710;49.976;19.836;2022-08-19T17:00:00;10.20;;;7.55;;
34471;SDS011;20710;49.976;19.836;2022-08-19T17:06:12;9.68;;;7.90;;
34471;SDS011;20710;49.976;19.836;2022-08-19T17:12:18;12.07;;;7.72;;
34471;SDS011;20710;49.976;19.836;2022-08-19T17:18:20;10.72;;;8.50;;
34471;SDS011;20710;49.976;19.836;2022-08-19T17:24:23;11.10;;;8.78;;
34471;SDS011;20710;49.976;19.836;2022-08-19T17:30:25;12.47;;;9.00;;
34471;SDS011;20710;49.976;19.836;2022-08-19T17:36:28;11.08;;;8.48;;
34471;SDS011;20710;49.976;19.836;2022-08-19T17:42:33;12.90;;;8.70;;
34471;SDS011;20710;49.976;19.836;2022-08-19T17:48:36;10.70;;;8.88;;
34471;SDS011;20710;49.976;19.836;2022-08-19T17:54:40;14.10;;;8.83;;
34471;SDS011;20710;49.976;19.836;2022-08-19T18:00:42;10.60;;;9.45;;
34471;SDS011;20710;49.976;19.836;2022-08-19T18:06:45;14.55;;;9.53;;
34471;SDS011;20710;49.976;19.836;2022-08-19T18:12:47;14.38;;;9.83;;
34471;SDS011;20710;49.976;19.836;2022-08-19T18:18:50;11.65;;;9.48;;
34471;SDS011;20710;49.976;19.836;2022-08-19T18:24:55;11.73;;;8.85;;
34471;SDS011;20710;49.976;19.836;2022-08-19T18:31:00;13.38;;;8.53;;
34471;SDS011;20710;49.976;19.836;2022-08-19T18:37:03;10.63;;;8.38;;
34471;SDS011;20710;49.976;19.836;2022-08-19T18:43:07;25.82;;;9.90;;
34471;SDS011;20710;49.976;19.836;2022-08-19T18:49:14;22.60;;;7.97;;
34471;SDS011;20710;49.976;19.836;2022-08-19T18:55:22;13.03;;;7.35;;
34471;SDS011;20710;49.976;19.836;2022-08-19T19:01:25;20.08;;;7.53;;
34471;SDS011;20710;49.976;19.836;2022-08-19T19:07:30;14.35;;;7.28;;
34471;SDS011;20710;49.976;19.836;2022-08-19T19:13:33;15.80;;;8.28;;
34471;SDS011;20710;49.976;19.836;2022-08-19T19:19:35;18.50;;;7.78;;
34471;SDS011;20710;49.976;19.836;2022-08-19T19:25:40;12.10;;;7.03;;
34471;SDS011;20710;49.976;19.836;2022-08-19T19:31:43;14.53;;;8.10;;
34471;SDS011;20710;49.976;19.836;2022-08-19T19:37:44;10.93;;;6.95;;
34471;SDS011;20710;49.976;19.836;2022-08-19T19:43:50;13.75;;;7.15;;
34471;SDS011;20710;49.976;19.836;2022-08-19T19:49:53;11.12;;;7.00;;
34471;SDS011;20710;49.976;19.836;2022-08-19T19:55:55;13.40;;;7.17;;
34471;SDS011;20710;49.976;19.836;2022-08-19T20:02:00;17.57;;;8.20;;
34471;SDS011;20710;49.976;19.836;2022-08-19T20:08:01;12.10;;;7.55;;
34471;SDS011;20710;49.976;19.836;2022-08-19T20:14:23;14.73;;;8.50;;
34471;SDS011;20710;49.976;19.836;2022-08-19T20:20:28;15.30;;;9.05;;
34471;SDS011;20710;49.976;19.836;2022-08-19T20:26:31;15.23;;;8.38;;
34471;SDS011;20710;49.976;19.836;2022-08-19T20:32:32;15.15;;;8.20;;
34471;SDS011;20710;49.976;19.836;2022-08-19T20:38:34;14.00;;;8.23;;
34471;SDS011;20710;49.976;19.836;2022-08-19T20:44:35;13.83;;;8.43;;
34471;SDS011;20710;49.976;19.836;2022-08-19T20:50:37;12.88;;;8.30;;
34471;SDS011;20710;49.976;19.836;2022-08-19T20:56:39;17.70;;;8.75;;
34471;SDS011;20710;49.976;19.836;2022-08-19T21:02:41;13.75;;;8.85;;
34471;SDS011;20710;49.976;19.836;2022-08-19T21:08:42;14.38;;;8.48;;
34471;SDS011;20710;49.976;19.836;2022-08-19T21:14:43;16.65;;;8.73;;
34471;SDS011;20710;49.976;19.836;2022-08-19T21:20:47;14.47;;;8.63;;
34471;SDS011;20710;49.976;19.836;2022-08-19T21:26:50;13.05;;;8.70;;
34471;SDS011;20710;49.976;19.836;2022-08-19T21:32:52;16.77;;;8.50;;
34471;SDS011;20710;49.976;19.836;2022-08-19T21:38:54;17.62;;;9.53;;
34471;SDS011;20710;49.976;19.836;2022-08-19T21:44:55;18.87;;;9.93;;
34471;SDS011;20710;49.976;19.836;2022-08-19T21:50:57;12.47;;;8.28;;
34471;SDS011;20710;49.976;19.836;2022-08-19T21:56:58;14.35;;;8.43;;
34471;SDS011;20710;49.976;19.836;2022-08-19T22:03:01;16.67;;;9.38;;
34471;SDS011;20710;49.976;19.836;2022-08-19T22:09:04;13.60;;;8.83;;
34471;SDS011;20710;49.976;19.836;2022-08-19T22:15:05;13.48;;;8.25;;
34471;SDS011;20710;49.976;19.836;2022-08-19T22:21:08;19.55;;;8.28;;
34471;SDS011;20710;49.976;19.836;2022-08-19T22:27:11;18.77;;;9.75;;
34471;SDS011;20710;49.976;19.836;2022-08-19T22:33:14;13.93;;;9.48;;
34471;SDS011;20710;49.976;19.836;2022-08-19T22:39:18;17.75;;;9.85;;
34471;SDS011;20710;49.976;19.836;2022-08-19T22:45:19;18.70;;;9.93;;
34471;SDS011;20710;49.976;19.836;2022-08-19T22:51:23;15.50;;;9.83;;
34471;SDS011;20710;49.976;19.836;2022-08-19T22:57:42;14.80;;;10.23;;
34471;SDS011;20710;49.976;19.836;2022-08-19T23:03:43;15.95;;;9.13;;
34471;SDS011;20710;49.976;19.836;2022-08-19T23:09:45;22.00;;;11.30;;
34471;SDS011;20710;49.976;19.836;2022-08-19T23:15:47;18.23;;;10.60;;
34471;SDS011;20710;49.976;19.836;2022-08-19T23:21:48;15.43;;;10.32;;
34471;SDS011;20710;49.976;19.836;2022-08-19T23:27:50;15.68;;;10.08;;
34471;SDS011;20710;49.976;19.836;2022-08-19T23:34:10;15.58;;;9.68;;
34471;SDS011;20710;49.976;19.836;2022-08-19T23:40:12;16.07;;;10.65;;
34471;SDS011;20710;49.976;19.836;2022-08-19T23:46:17;22.10;;;10.98;;
34471;SDS011;20710;49.976;19.836;2022-08-19T23:52:19;13.32;;;10.38;;
34471;SDS011;20710;49.976;19.836;2022-08-19T23:58:20;17.65;;;11.60;;
